sensor_id;sensor_type;location;lat;lon;timestamp;P1;durP1;ratioP1;P2;durP2;ratioP2
6259;SDS011;3163;51.516;4.000;2023-06-19T00:00:08;1.77;;;1.52;;
6259;SDS011;3163;51.516;4.000;2023-06-19T00:02:41;1.80;;;1.63;;
6259;SDS011;3163;51.516;4.000;2023-06-19T00:05:07;1.80;;;1.30;;
6259;SDS011;3163;51.516;4.000;2023-06-19T00:07:34;1.67;;;1.35;;
6259;SDS011;3163;51.516;4.000;2023-06-19T00:10:00;2.83;;;1.73;;
6259;SDS011;3163;51.516;4.000;2023-06-19T00:12:26;2.22;;;1.63;;
6259;SDS011;3163;51.516;4.000;2023-06-19T00:14:52;2.08;;;1.60;;
6259;SDS011;3163;51.516;4.000;2023-06-19T00:17:18;4.75;;;1.95;;
6259;SDS011;3163;51.516;4.000;2023-06-19T00:19:44;3.47;;;1.77;;
6259;SDS011;3163;51.516;4.000;2023-06-19T00:22:10;2.10;;;1.63;;
6259;SDS011;3163;51.516;4.000;2023-06-19T00:24:36;2.28;;;1.38;;
6259;SDS011;3163;51.516;4.000;2023-06-19T00:27:02;3.42;;;1.52;;
6259;SDS011;3163;51.516;4.000;2023-06-19T00:29:28;3.00;;;1.50;;
6259;SDS011;3163;51.516;4.000;2023-06-19T00:31:54;1.48;;;1.38;;
6259;SDS011;3163;51.516;4.000;2023-06-19T00:34:20;3.33;;;1.60;;
6259;SDS011;3163;51.516;4.000;2023-06-19T00:36:49;1.60;;;1.50;;
6259;SDS011;3163;51.516;4.000;2023-06-19T00:39:15;1.60;;;1.50;;
6259;SDS011;3163;51.516;4.000;2023-06-19T00:41:41;1.35;;;1.30;;
6259;SDS011;3163;51.516;4.000;2023-06-19T00:44:08;1.60;;;1.50;;
6259;SDS011;3163;51.516;4.000;2023-06-19T00:46:35;1.80;;;1.40;;
6259;SDS011;3163;51.516;4.000;2023-06-19T00:49:03;1.45;;;1.35;;
6259;SDS011;3163;51.516;4.000;2023-06-19T00:51:29;3.47;;;1.60;;
6259;SDS011;3163;51.516;4.000;2023-06-19T00:53:55;1.50;;;1.40;;
6259;SDS011;3163;51.516;4.000;2023-06-19T00:56:21;1.70;;;1.13;;
6259;SDS011;3163;51.516;4.000;2023-06-19T00:58:47;1.92;;;1.40;;
6259;SDS011;3163;51.516;4.000;2023-06-19T01:01:13;2.55;;;1.40;;
6259;SDS011;3163;51.516;4.000;2023-06-19T01:03:39;1.40;;;1.30;;
6259;SDS011;3163;51.516;4.000;2023-06-19T01:06:07;1.25;;;1.10;;
6259;SDS011;3163;51.516;4.000;2023-06-19T01:11:01;2.10;;;1.90;;
6259;SDS011;3163;51.516;4.000;2023-06-19T01:16:04;1.30;;;1.20;;
6259;SDS011;3163;51.516;4.000;2023-06-19T01:18:31;1.45;;;1.35;;
6259;SDS011;3163;51.516;4.000;2023-06-19T01:21:09;3.13;;;2.28;;
6259;SDS011;3163;51.516;4.000;2023-06-19T01:23:34;1.30;;;1.30;;
6259;SDS011;3163;51.516;4.000;2023-06-19T01:26:00;1.23;;;1.23;;
6259;SDS011;3163;51.516;4.000;2023-06-19T01:28:26;1.48;;;1.40;;
6259;SDS011;3163;51.516;4.000;2023-06-19T01:30:52;1.40;;;1.30;;
6259;SDS011;3163;51.516;4.000;2023-06-19T01:33:23;1.73;;;1.55;;
6259;SDS011;3163;51.516;4.000;2023-06-19T01:35:51;2.20;;;2.05;;
6259;SDS011;3163;51.516;4.000;2023-06-19T01:38:18;1.20;;;1.20;;
6259;SDS011;3163;51.516;4.000;2023-06-19T01:40:45;2.30;;;2.10;;
6259;SDS011;3163;51.516;4.000;2023-06-19T01:43:11;1.70;;;1.60;;
6259;SDS011;3163;51.516;4.000;2023-06-19T01:45:37;1.77;;;1.67;;
6259;SDS011;3163;51.516;4.000;2023-06-19T01:48:04;1.88;;;1.60;;
6259;SDS011;3163;51.516;4.000;2023-06-19T01:50:30;2.53;;;2.13;;
6259;SDS011;3163;51.516;4.000;2023-06-19T01:52:56;2.45;;;2.00;;
6259;SDS011;3163;51.516;4.000;2023-06-19T01:55:22;3.45;;;3.15;;
6259;SDS011;3163;51.516;4.000;2023-06-19T01:57:48;1.85;;;1.75;;
6259;SDS011;3163;51.516;4.000;2023-06-19T02:00:14;2.28;;;2.03;;
6259;SDS011;3163;51.516;4.000;2023-06-19T02:02:40;2.45;;;2.20;;
6259;SDS011;3163;51.516;4.000;2023-06-19T02:05:06;2.67;;;1.90;;
6259;SDS011;3163;51.516;4.000;2023-06-19T02:07:32;2.47;;;2.03;;
6259;SDS011;3163;51.516;4.000;2023-06-19T02:09:58;1.95;;;1.85;;
6259;SDS011;3163;51.516;4.000;2023-06-19T02:12:24;2.17;;;1.80;;
6259;SDS011;3163;51.516;4.000;2023-06-19T02:14:50;2.13;;;1.92;;
6259;SDS011;3163;51.516;4.000;2023-06-19T02:17:16;2.10;;;1.88;;
6259;SDS011;3163;51.516;4.000;2023-06-19T02:19:42;1.98;;;1.88;;
6259;SDS011;3163;51.516;4.000;2023-06-19T02:22:08;1.90;;;1.77;;
6259;SDS011;3163;51.516;4.000;2023-06-19T02:24:34;4.15;;;1.80;;
6259;SDS011;3163;51.516;4.000;2023-06-19T02:27:02;1.73;;;1.23;;
6259;SDS011;3163;51.516;4.000;2023-06-19T02:29:28;1.27;;;1.20;;
6259;SDS011;3163;51.516;4.000;2023-06-19T02:31:58;2.70;;;1.98;;
6259;SDS011;3163;51.516;4.000;2023-06-19T02:34:24;1.80;;;1.70;;
6259;SDS011;3163;51.516;4.000;2023-06-19T02:36:51;1.17;;;1.10;;
6259;SDS011;3163;51.516;4.000;2023-06-19T02:39:17;2.10;;;1.65;;
6259;SDS011;3163;51.516;4.000;2023-06-19T02:41:43;1.40;;;1.30;;
6259;SDS011;3163;51.516;4.000;2023-06-19T02:44:11;1.50;;;1.35;;
6259;SDS011;3163;51.516;4.000;2023-06-19T02:46:37;1.60;;;1.50;;
6259;SDS011;3163;51.516;4.000;2023-06-19T02:49:03;1.10;;;1.10;;
6259;SDS011;3163;51.516;4.000;2023-06-19T02:51:29;1.40;;;1.30;;
6259;SDS011;3163;51.516;4.000;2023-06-19T02:53:55;1.45;;;1.40;;
6259;SDS011;3163;51.516;4.000;2023-06-19T02:56:21;1.75;;;1.35;;
6259;SDS011;3163;51.516;4.000;2023-06-19T02:58:47;1.60;;;1.50;;
6259;SDS011;3163;51.516;4.000;2023-06-19T03:01:13;1.90;;;1.80;;
6259;SDS011;3163;51.516;4.000;2023-06-19T03:03:39;1.70;;;1.20;;
6259;SDS011;3163;51.516;4.000;2023-06-19T03:06:06;1.05;;;1.02;;
6259;SDS011;3163;51.516;4.000;2023-06-19T03:08:33;1.15;;;1.13;;
6259;SDS011;3163;51.516;4.000;2023-06-19T03:10:59;2.27;;;1.90;;
6259;SDS011;3163;51.516;4.000;2023-06-19T03:13:25;1.77;;;1.55;;
6259;SDS011;3163;51.516;4.000;2023-06-19T03:15:51;1.63;;;1.52;;
6259;SDS011;3163;51.516;4.000;2023-06-19T03:18:17;1.23;;;1.23;;
6259;SDS011;3163;51.516;4.000;2023-06-19T03:20:43;1.10;;;1.00;;
6259;SDS011;3163;51.516;4.000;2023-06-19T03:23:09;1.33;;;1.13;;
6259;SDS011;3163;51.516;4.000;2023-06-19T03:25:35;1.20;;;1.20;;
6259;SDS011;3163;51.516;4.000;2023-06-19T03:28:01;1.20;;;1.20;;
6259;SDS011;3163;51.516;4.000;2023-06-19T03:30:27;1.85;;;1.13;;
6259;SDS011;3163;51.516;4.000;2023-06-19T03:32:53;0.93;;;0.90;;
6259;SDS011;3163;51.516;4.000;2023-06-19T03:35:20;1.90;;;1.45;;
6259;SDS011;3163;51.516;4.000;2023-06-19T03:37:45;1.55;;;1.45;;
6259;SDS011;3163;51.516;4.000;2023-06-19T03:40:11;2.65;;;1.10;;
6259;SDS011;3163;51.516;4.000;2023-06-19T03:42:39;2.38;;;1.80;;
6259;SDS011;3163;51.516;4.000;2023-06-19T03:45:05;1.52;;;1.42;;
6259;SDS011;3163;51.516;4.000;2023-06-19T03:47:31;2.38;;;1.75;;
6259;SDS011;3163;51.516;4.000;2023-06-19T03:49:57;1.48;;;1.38;;
6259;SDS011;3163;51.516;4.000;2023-06-19T03:52:23;2.47;;;2.07;;
6259;SDS011;3163;51.516;4.000;2023-06-19T03:54:49;1.48;;;1.40;;
6259;SDS011;3163;51.516;4.000;2023-06-19T03:57:15;3.13;;;1.90;;
6259;SDS011;3163;51.516;4.000;2023-06-19T03:59:41;1.38;;;1.38;;
6259;SDS011;3163;51.516;4.000;2023-06-19T04:02:07;1.30;;;1.30;;
6259;SDS011;3163;51.516;4.000;2023-06-19T04:04:33;3.15;;;1.85;;
6259;SDS011;3163;51.516;4.000;2023-06-19T04:06:59;1.98;;;1.83;;
6259;SDS011;3163;51.516;4.000;2023-06-19T04:09:25;1.90;;;1.80;;
6259;SDS011;3163;51.516;4.000;2023-06-19T04:11:51;4.75;;;1.90;;
6259;SDS011;3163;51.516;4.000;2023-06-19T04:14:17;2.97;;;2.20;;
6259;SDS011;3163;51.516;4.000;2023-06-19T04:16:43;2.28;;;2.10;;
6259;SDS011;3163;51.516;4.000;2023-06-19T04:19:09;2.42;;;2.17;;
6259;SDS011;3163;51.516;4.000;2023-06-19T04:21:35;2.43;;;2.10;;
6259;SDS011;3163;51.516;4.000;2023-06-19T04:24:01;2.38;;;2.17;;
6259;SDS011;3163;51.516;4.000;2023-06-19T04:26:29;2.13;;;2.03;;
6259;SDS011;3163;51.516;4.000;2023-06-19T04:28:55;2.75;;;2.55;;
6259;SDS011;3163;51.516;4.000;2023-06-19T04:31:21;2.60;;;2.40;;
6259;SDS011;3163;51.516;4.000;2023-06-19T04:33:48;2.75;;;1.90;;
6259;SDS011;3163;51.516;4.000;2023-06-19T04:36:14;2.42;;;2.03;;
6259;SDS011;3163;51.516;4.000;2023-06-19T04:38:40;3.25;;;2.85;;
6259;SDS011;3163;51.516;4.000;2023-06-19T04:41:06;2.33;;;2.13;;
6259;SDS011;3163;51.516;4.000;2023-06-19T04:43:32;2.08;;;1.90;;
6259;SDS011;3163;51.516;4.000;2023-06-19T04:45:59;3.58;;;2.83;;
6259;SDS011;3163;51.516;4.000;2023-06-19T04:48:25;2.70;;;2.08;;
6259;SDS011;3163;51.516;4.000;2023-06-19T04:50:51;3.85;;;2.15;;
6259;SDS011;3163;51.516;4.000;2023-06-19T04:53:17;4.13;;;2.88;;
6259;SDS011;3163;51.516;4.000;2023-06-19T04:55:43;3.50;;;2.47;;
6259;SDS011;3163;51.516;4.000;2023-06-19T04:58:10;3.15;;;2.85;;
6259;SDS011;3163;51.516;4.000;2023-06-19T05:00:36;2.45;;;2.25;;
6259;SDS011;3163;51.516;4.000;2023-06-19T05:03:02;3.45;;;2.88;;
6259;SDS011;3163;51.516;4.000;2023-06-19T05:05:28;2.85;;;2.65;;
6259;SDS011;3163;51.516;4.000;2023-06-19T05:07:54;3.05;;;2.75;;
6259;SDS011;3163;51.516;4.000;2023-06-19T05:10:20;2.88;;;2.67;;
6259;SDS011;3163;51.516;4.000;2023-06-19T05:12:46;3.10;;;2.80;;
6259;SDS011;3163;51.516;4.000;2023-06-19T05:15:12;3.72;;;2.75;;
6259;SDS011;3163;51.516;4.000;2023-06-19T05:17:38;2.35;;;2.25;;
6259;SDS011;3163;51.516;4.000;2023-06-19T05:20:05;3.75;;;2.80;;
6259;SDS011;3163;51.516;4.000;2023-06-19T05:22:34;2.92;;;2.60;;
6259;SDS011;3163;51.516;4.000;2023-06-19T05:25:01;3.30;;;3.00;;
6259;SDS011;3163;51.516;4.000;2023-06-19T05:27:27;2.60;;;2.40;;
6259;SDS011;3163;51.516;4.000;2023-06-19T05:29:53;4.72;;;3.20;;
6259;SDS011;3163;51.516;4.000;2023-06-19T05:32:19;3.22;;;2.67;;
6259;SDS011;3163;51.516;4.000;2023-06-19T05:34:45;2.95;;;2.78;;
6259;SDS011;3163;51.516;4.000;2023-06-19T05:37:11;2.55;;;2.35;;
6259;SDS011;3163;51.516;4.000;2023-06-19T05:39:37;3.92;;;2.80;;
6259;SDS011;3163;51.516;4.000;2023-06-19T05:42:03;3.47;;;3.17;;
6259;SDS011;3163;51.516;4.000;2023-06-19T05:44:29;3.50;;;3.20;;
6259;SDS011;3163;51.516;4.000;2023-06-19T05:46:55;3.00;;;2.80;;
6259;SDS011;3163;51.516;4.000;2023-06-19T05:49:21;2.75;;;2.55;;
6259;SDS011;3163;51.516;4.000;2023-06-19T05:51:47;2.78;;;2.58;;
6259;SDS011;3163;51.516;4.000;2023-06-19T05:54:13;4.87;;;4.17;;
6259;SDS011;3163;51.516;4.000;2023-06-19T05:56:39;2.75;;;2.55;;
6259;SDS011;3163;51.516;4.000;2023-06-19T05:59:06;2.72;;;2.47;;
6259;SDS011;3163;51.516;4.000;2023-06-19T06:01:32;3.67;;;2.88;;
6259;SDS011;3163;51.516;4.000;2023-06-19T06:03:58;2.45;;;2.30;;
6259;SDS011;3163;51.516;4.000;2023-06-19T06:06:26;3.00;;;2.58;;
6259;SDS011;3163;51.516;4.000;2023-06-19T06:08:52;2.90;;;2.70;;
6259;SDS011;3163;51.516;4.000;2023-06-19T06:11:20;3.08;;;2.80;;
6259;SDS011;3163;51.516;4.000;2023-06-19T06:13:46;4.65;;;2.92;;
6259;SDS011;3163;51.516;4.000;2023-06-19T06:16:12;3.30;;;3.00;;
6259;SDS011;3163;51.516;4.000;2023-06-19T06:18:39;2.63;;;2.42;;
6259;SDS011;3163;51.516;4.000;2023-06-19T06:21:05;2.90;;;2.70;;
6259;SDS011;3163;51.516;4.000;2023-06-19T06:23:31;2.63;;;2.45;;
6259;SDS011;3163;51.516;4.000;2023-06-19T06:25:57;4.28;;;2.75;;
6259;SDS011;3163;51.516;4.000;2023-06-19T06:28:27;4.38;;;2.60;;
6259;SDS011;3163;51.516;4.000;2023-06-19T06:30:53;3.85;;;3.47;;
6259;SDS011;3163;51.516;4.000;2023-06-19T06:33:19;4.18;;;3.55;;
6259;SDS011;3163;51.516;4.000;2023-06-19T06:35:45;3.72;;;3.40;;
6259;SDS011;3163;51.516;4.000;2023-06-19T06:38:11;4.18;;;2.97;;
6259;SDS011;3163;51.516;4.000;2023-06-19T06:40:37;3.67;;;2.83;;
6259;SDS011;3163;51.516;4.000;2023-06-19T06:43:03;3.78;;;3.38;;
6259;SDS011;3163;51.516;4.000;2023-06-19T06:45:29;3.30;;;2.95;;
6259;SDS011;3163;51.516;4.000;2023-06-19T06:47:55;3.38;;;3.08;;
6259;SDS011;3163;51.516;4.000;2023-06-19T06:50:21;3.63;;;3.33;;
6259;SDS011;3163;51.516;4.000;2023-06-19T06:52:47;5.03;;;3.40;;
6259;SDS011;3163;51.516;4.000;2023-06-19T06:55:13;5.60;;;3.40;;
6259;SDS011;3163;51.516;4.000;2023-06-19T06:57:39;4.70;;;3.13;;
6259;SDS011;3163;51.516;4.000;2023-06-19T07:00:05;6.55;;;3.55;;
6259;SDS011;3163;51.516;4.000;2023-06-19T07:02:34;3.88;;;3.47;;
6259;SDS011;3163;51.516;4.000;2023-06-19T07:05:00;4.20;;;3.50;;
6259;SDS011;3163;51.516;4.000;2023-06-19T07:07:26;8.68;;;5.28;;
6259;SDS011;3163;51.516;4.000;2023-06-19T07:09:52;10.23;;;7.40;;
6259;SDS011;3163;51.516;4.000;2023-06-19T07:12:18;4.97;;;3.85;;
6259;SDS011;3163;51.516;4.000;2023-06-19T07:14:44;14.75;;;9.10;;
6259;SDS011;3163;51.516;4.000;2023-06-19T07:17:10;11.40;;;8.70;;
6259;SDS011;3163;51.516;4.000;2023-06-19T07:19:36;9.70;;;7.53;;
6259;SDS011;3163;51.516;4.000;2023-06-19T07:22:02;10.00;;;6.85;;
6259;SDS011;3163;51.516;4.000;2023-06-19T07:24:28;7.78;;;5.88;;
6259;SDS011;3163;51.516;4.000;2023-06-19T07:26:54;7.53;;;5.38;;
6259;SDS011;3163;51.516;4.000;2023-06-19T07:29:21;6.18;;;4.88;;
6259;SDS011;3163;51.516;4.000;2023-06-19T07:31:47;6.55;;;5.75;;
6259;SDS011;3163;51.516;4.000;2023-06-19T07:34:13;8.93;;;5.18;;
6259;SDS011;3163;51.516;4.000;2023-06-19T07:36:39;7.35;;;5.57;;
6259;SDS011;3163;51.516;4.000;2023-06-19T07:39:07;7.07;;;4.82;;
6259;SDS011;3163;51.516;4.000;2023-06-19T07:41:33;7.85;;;4.57;;
6259;SDS011;3163;51.516;4.000;2023-06-19T07:43:59;6.10;;;4.47;;
6259;SDS011;3163;51.516;4.000;2023-06-19T07:46:25;5.97;;;5.18;;
6259;SDS011;3163;51.516;4.000;2023-06-19T07:48:51;6.05;;;5.45;;
6259;SDS011;3163;51.516;4.000;2023-06-19T07:51:17;6.20;;;4.90;;
6259;SDS011;3163;51.516;4.000;2023-06-19T07:53:43;7.25;;;4.95;;
6259;SDS011;3163;51.516;4.000;2023-06-19T07:56:09;6.13;;;4.60;;
6259;SDS011;3163;51.516;4.000;2023-06-19T07:58:35;5.40;;;4.90;;
6259;SDS011;3163;51.516;4.000;2023-06-19T08:01:01;5.30;;;4.25;;
6259;SDS011;3163;51.516;4.000;2023-06-19T08:03:27;6.10;;;4.57;;
6259;SDS011;3163;51.516;4.000;2023-06-19T08:05:53;4.47;;;4.07;;
6259;SDS011;3163;51.516;4.000;2023-06-19T08:08:19;4.70;;;4.30;;
6259;SDS011;3163;51.516;4.000;2023-06-19T08:10:45;4.68;;;4.13;;
6259;SDS011;3163;51.516;4.000;2023-06-19T08:13:10;5.78;;;5.05;;
6259;SDS011;3163;51.516;4.000;2023-06-19T08:15:37;4.65;;;4.22;;
6259;SDS011;3163;51.516;4.000;2023-06-19T08:18:03;4.25;;;3.85;;
6259;SDS011;3163;51.516;4.000;2023-06-19T08:20:29;5.40;;;3.60;;
6259;SDS011;3163;51.516;4.000;2023-06-19T08:22:55;5.07;;;4.57;;
6259;SDS011;3163;51.516;4.000;2023-06-19T08:25:21;4.47;;;4.07;;
6259;SDS011;3163;51.516;4.000;2023-06-19T08:27:47;4.57;;;3.92;;
6259;SDS011;3163;51.516;4.000;2023-06-19T08:30:13;4.43;;;4.03;;
6259;SDS011;3163;51.516;4.000;2023-06-19T08:32:39;4.13;;;3.72;;
6259;SDS011;3163;51.516;4.000;2023-06-19T08:35:05;4.53;;;3.92;;
6259;SDS011;3163;51.516;4.000;2023-06-19T08:37:31;4.22;;;3.50;;
6259;SDS011;3163;51.516;4.000;2023-06-19T08:39:57;5.18;;;3.88;;
6259;SDS011;3163;51.516;4.000;2023-06-19T08:42:24;3.85;;;3.55;;
6259;SDS011;3163;51.516;4.000;2023-06-19T08:44:50;3.88;;;3.45;;
6259;SDS011;3163;51.516;4.000;2023-06-19T08:47:16;3.88;;;3.35;;
6259;SDS011;3163;51.516;4.000;2023-06-19T08:49:42;5.47;;;3.63;;
6259;SDS011;3163;51.516;4.000;2023-06-19T08:52:08;3.92;;;3.53;;
6259;SDS011;3163;51.516;4.000;2023-06-19T08:54:34;4.28;;;3.42;;
6259;SDS011;3163;51.516;4.000;2023-06-19T08:57:08;6.70;;;3.92;;
6259;SDS011;3163;51.516;4.000;2023-06-19T08:59:35;4.03;;;3.65;;
6259;SDS011;3163;51.516;4.000;2023-06-19T09:02:01;3.90;;;3.53;;
6259;SDS011;3163;51.516;4.000;2023-06-19T09:04:27;3.42;;;3.13;;
6259;SDS011;3163;51.516;4.000;2023-06-19T09:09:20;3.20;;;3.00;;
6259;SDS011;3163;51.516;4.000;2023-06-19T09:12:19;3.80;;;3.40;;
6259;SDS011;3163;51.516;4.000;2023-06-19T09:14:40;6.32;;;4.88;;
6259;SDS011;3163;51.516;4.000;2023-06-19T09:17:09;3.25;;;2.95;;
6259;SDS011;3163;51.516;4.000;2023-06-19T09:19:35;2.83;;;2.63;;
6259;SDS011;3163;51.516;4.000;2023-06-19T09:22:05;3.33;;;3.03;;
6259;SDS011;3163;51.516;4.000;2023-06-19T09:29:37;4.30;;;3.35;;
6259;SDS011;3163;51.516;4.000;2023-06-19T09:32:13;4.88;;;3.20;;
6259;SDS011;3163;51.516;4.000;2023-06-19T09:34:39;3.55;;;3.15;;
6259;SDS011;3163;51.516;4.000;2023-06-19T09:37:06;5.90;;;3.78;;
6259;SDS011;3163;51.516;4.000;2023-06-19T09:39:32;3.60;;;3.25;;
6259;SDS011;3163;51.516;4.000;2023-06-19T09:41:59;4.30;;;3.10;;
6259;SDS011;3163;51.516;4.000;2023-06-19T09:44:29;4.88;;;3.38;;
6259;SDS011;3163;51.516;4.000;2023-06-19T09:46:56;4.32;;;2.63;;
6259;SDS011;3163;51.516;4.000;2023-06-19T09:49:26;3.63;;;3.08;;
6259;SDS011;3163;51.516;4.000;2023-06-19T09:51:53;4.07;;;3.00;;
6259;SDS011;3163;51.516;4.000;2023-06-19T09:54:20;3.97;;;2.97;;
6259;SDS011;3163;51.516;4.000;2023-06-19T09:56:46;3.45;;;3.15;;
6259;SDS011;3163;51.516;4.000;2023-06-19T09:59:16;4.20;;;3.05;;
6259;SDS011;3163;51.516;4.000;2023-06-19T10:01:42;4.22;;;3.25;;
6259;SDS011;3163;51.516;4.000;2023-06-19T10:04:10;4.53;;;2.83;;
6259;SDS011;3163;51.516;4.000;2023-06-19T10:06:44;5.15;;;2.80;;
6259;SDS011;3163;51.516;4.000;2023-06-19T10:09:10;3.22;;;2.72;;
6259;SDS011;3163;51.516;4.000;2023-06-19T10:11:52;2.85;;;2.65;;
6259;SDS011;3163;51.516;4.000;2023-06-19T10:14:21;3.20;;;3.00;;
6259;SDS011;3163;51.516;4.000;2023-06-19T10:16:48;4.80;;;3.20;;
6259;SDS011;3163;51.516;4.000;2023-06-19T10:19:18;3.65;;;2.78;;
6259;SDS011;3163;51.516;4.000;2023-06-19T10:21:47;4.53;;;4.13;;
6259;SDS011;3163;51.516;4.000;2023-06-19T10:24:16;4.22;;;3.17;;
6259;SDS011;3163;51.516;4.000;2023-06-19T10:26:55;3.88;;;2.65;;
6259;SDS011;3163;51.516;4.000;2023-06-19T10:29:22;2.78;;;2.67;;
6259;SDS011;3163;51.516;4.000;2023-06-19T10:31:48;4.45;;;3.08;;
6259;SDS011;3163;51.516;4.000;2023-06-19T10:34:14;3.77;;;3.40;;
6259;SDS011;3163;51.516;4.000;2023-06-19T10:36:40;5.75;;;2.95;;
6259;SDS011;3163;51.516;4.000;2023-06-19T10:39:06;3.15;;;2.95;;
6259;SDS011;3163;51.516;4.000;2023-06-19T10:41:32;7.07;;;4.35;;
6259;SDS011;3163;51.516;4.000;2023-06-19T10:44:02;4.95;;;3.53;;
6259;SDS011;3163;51.516;4.000;2023-06-19T10:46:30;7.10;;;4.75;;
6259;SDS011;3163;51.516;4.000;2023-06-19T10:48:56;7.20;;;4.18;;
6259;SDS011;3163;51.516;4.000;2023-06-19T10:51:28;6.50;;;4.70;;
6259;SDS011;3163;51.516;4.000;2023-06-19T10:53:55;5.25;;;4.13;;
6259;SDS011;3163;51.516;4.000;2023-06-19T10:56:21;7.80;;;5.45;;
6259;SDS011;3163;51.516;4.000;2023-06-19T10:58:48;7.15;;;4.82;;
6259;SDS011;3163;51.516;4.000;2023-06-19T11:01:14;7.40;;;3.95;;
6259;SDS011;3163;51.516;4.000;2023-06-19T11:03:40;7.50;;;4.55;;
6259;SDS011;3163;51.516;4.000;2023-06-19T11:06:06;4.38;;;3.33;;
6259;SDS011;3163;51.516;4.000;2023-06-19T11:08:32;7.88;;;6.00;;
6259;SDS011;3163;51.516;4.000;2023-06-19T11:10:59;4.75;;;4.35;;
6259;SDS011;3163;51.516;4.000;2023-06-19T11:13:25;4.85;;;3.90;;
6259;SDS011;3163;51.516;4.000;2023-06-19T11:15:51;6.60;;;5.03;;
6259;SDS011;3163;51.516;4.000;2023-06-19T11:18:18;5.72;;;4.07;;
6259;SDS011;3163;51.516;4.000;2023-06-19T11:20:49;6.18;;;5.13;;
6259;SDS011;3163;51.516;4.000;2023-06-19T11:23:16;5.38;;;3.97;;
6259;SDS011;3163;51.516;4.000;2023-06-19T11:25:42;7.15;;;4.78;;
6259;SDS011;3163;51.516;4.000;2023-06-19T11:28:12;8.95;;;5.50;;
6259;SDS011;3163;51.516;4.000;2023-06-19T11:30:42;6.18;;;4.00;;
6259;SDS011;3163;51.516;4.000;2023-06-19T11:33:18;4.80;;;4.15;;
6259;SDS011;3163;51.516;4.000;2023-06-19T11:35:48;4.03;;;3.50;;
6259;SDS011;3163;51.516;4.000;2023-06-19T11:38:22;4.88;;;3.72;;
6259;SDS011;3163;51.516;4.000;2023-06-19T11:40:48;5.38;;;4.85;;
6259;SDS011;3163;51.516;4.000;2023-06-19T11:43:24;3.92;;;3.22;;
6259;SDS011;3163;51.516;4.000;2023-06-19T11:45:50;6.38;;;4.40;;
6259;SDS011;3163;51.516;4.000;2023-06-19T11:48:24;4.38;;;3.47;;
6259;SDS011;3163;51.516;4.000;2023-06-19T11:50:50;3.92;;;3.15;;
6259;SDS011;3163;51.516;4.000;2023-06-19T11:53:17;4.45;;;3.13;;
6259;SDS011;3163;51.516;4.000;2023-06-19T11:55:43;3.53;;;3.03;;
6259;SDS011;3163;51.516;4.000;2023-06-19T11:58:09;3.47;;;3.17;;
6259;SDS011;3163;51.516;4.000;2023-06-19T12:00:38;5.47;;;3.15;;
6259;SDS011;3163;51.516;4.000;2023-06-19T12:03:04;3.58;;;3.08;;
6259;SDS011;3163;51.516;4.000;2023-06-19T12:05:30;6.00;;;3.47;;
6259;SDS011;3163;51.516;4.000;2023-06-19T12:07:56;7.13;;;4.68;;
6259;SDS011;3163;51.516;4.000;2023-06-19T12:10:22;5.93;;;3.83;;
6259;SDS011;3163;51.516;4.000;2023-06-19T12:12:48;4.70;;;4.00;;
6259;SDS011;3163;51.516;4.000;2023-06-19T12:15:14;3.60;;;3.30;;
6259;SDS011;3163;51.516;4.000;2023-06-19T12:17:40;3.47;;;3.10;;
6259;SDS011;3163;51.516;4.000;2023-06-19T12:20:06;2.90;;;2.70;;
6259;SDS011;3163;51.516;4.000;2023-06-19T12:22:33;4.15;;;3.60;;
6259;SDS011;3163;51.516;4.000;2023-06-19T12:25:00;4.55;;;3.20;;
6259;SDS011;3163;51.516;4.000;2023-06-19T12:27:26;5.35;;;3.90;;
6259;SDS011;3163;51.516;4.000;2023-06-19T12:29:52;3.78;;;3.45;;
6259;SDS011;3163;51.516;4.000;2023-06-19T12:32:18;4.88;;;3.75;;
6259;SDS011;3163;51.516;4.000;2023-06-19T12:34:46;3.30;;;3.00;;
6259;SDS011;3163;51.516;4.000;2023-06-19T12:37:13;5.60;;;3.88;;
6259;SDS011;3163;51.516;4.000;2023-06-19T12:39:40;3.33;;;2.92;;
6259;SDS011;3163;51.516;4.000;2023-06-19T12:42:06;4.57;;;3.20;;
6259;SDS011;3163;51.516;4.000;2023-06-19T12:44:32;6.63;;;5.30;;
6259;SDS011;3163;51.516;4.000;2023-06-19T12:46:58;3.80;;;3.42;;
6259;SDS011;3163;51.516;4.000;2023-06-19T12:49:25;6.63;;;3.05;;
6259;SDS011;3163;51.516;4.000;2023-06-19T12:51:51;3.10;;;2.80;;
6259;SDS011;3163;51.516;4.000;2023-06-19T12:54:18;2.90;;;2.67;;
6259;SDS011;3163;51.516;4.000;2023-06-19T12:56:44;3.53;;;3.20;;
6259;SDS011;3163;51.516;4.000;2023-06-19T12:59:10;4.60;;;3.50;;
6259;SDS011;3163;51.516;4.000;2023-06-19T13:01:36;3.00;;;2.70;;
6259;SDS011;3163;51.516;4.000;2023-06-19T13:04:02;3.58;;;2.50;;
6259;SDS011;3163;51.516;4.000;2023-06-19T13:06:29;4.00;;;3.05;;
6259;SDS011;3163;51.516;4.000;2023-06-19T13:08:55;5.75;;;3.40;;
6259;SDS011;3163;51.516;4.000;2023-06-19T13:11:21;2.90;;;2.58;;
6259;SDS011;3163;51.516;4.000;2023-06-19T13:13:47;4.72;;;3.10;;
6259;SDS011;3163;51.516;4.000;2023-06-19T13:16:13;4.55;;;3.08;;
6259;SDS011;3163;51.516;4.000;2023-06-19T13:18:41;5.70;;;2.92;;
6259;SDS011;3163;51.516;4.000;2023-06-19T13:21:06;2.83;;;2.60;;
6259;SDS011;3163;51.516;4.000;2023-06-19T13:23:32;5.55;;;2.85;;
6259;SDS011;3163;51.516;4.000;2023-06-19T13:25:59;2.63;;;2.40;;
6259;SDS011;3163;51.516;4.000;2023-06-19T13:28:25;6.28;;;3.33;;
6259;SDS011;3163;51.516;4.000;2023-06-19T13:30:51;4.00;;;3.15;;
6259;SDS011;3163;51.516;4.000;2023-06-19T13:33:17;4.82;;;3.00;;
6259;SDS011;3163;51.516;4.000;2023-06-19T13:35:43;4.15;;;2.72;;
6259;SDS011;3163;51.516;4.000;2023-06-19T13:38:09;4.55;;;3.22;;
6259;SDS011;3163;51.516;4.000;2023-06-19T13:40:35;3.25;;;2.95;;
6259;SDS011;3163;51.516;4.000;2023-06-19T13:43:01;3.10;;;2.85;;
6259;SDS011;3163;51.516;4.000;2023-06-19T13:45:28;3.00;;;2.65;;
6259;SDS011;3163;51.516;4.000;2023-06-19T13:47:55;3.08;;;2.45;;
6259;SDS011;3163;51.516;4.000;2023-06-19T13:50:23;5.05;;;2.85;;
6259;SDS011;3163;51.516;4.000;2023-06-19T13:52:48;6.88;;;2.67;;
6259;SDS011;3163;51.516;4.000;2023-06-19T13:55:15;3.05;;;2.55;;
6259;SDS011;3163;51.516;4.000;2023-06-19T13:57:42;3.53;;;2.90;;
6259;SDS011;3163;51.516;4.000;2023-06-19T14:00:08;5.00;;;3.45;;
6259;SDS011;3163;51.516;4.000;2023-06-19T14:02:35;4.82;;;3.20;;
6259;SDS011;3163;51.516;4.000;2023-06-19T14:05:02;2.75;;;2.55;;
6259;SDS011;3163;51.516;4.000;2023-06-19T14:07:28;3.22;;;2.97;;
6259;SDS011;3163;51.516;4.000;2023-06-19T14:09:54;3.73;;;3.30;;
6259;SDS011;3163;51.516;4.000;2023-06-19T14:12:20;2.95;;;2.60;;
6259;SDS011;3163;51.516;4.000;2023-06-19T14:14:46;3.25;;;2.90;;
6259;SDS011;3163;51.516;4.000;2023-06-19T14:17:13;3.50;;;2.95;;
6259;SDS011;3163;51.516;4.000;2023-06-19T14:19:39;4.10;;;3.10;;
6259;SDS011;3163;51.516;4.000;2023-06-19T14:22:05;5.47;;;3.28;;
6259;SDS011;3163;51.516;4.000;2023-06-19T14:24:31;3.67;;;3.28;;
6259;SDS011;3163;51.516;4.000;2023-06-19T14:26:57;3.85;;;3.05;;
6259;SDS011;3163;51.516;4.000;2023-06-19T14:29:23;3.10;;;2.80;;
6259;SDS011;3163;51.516;4.000;2023-06-19T14:31:52;4.22;;;2.22;;
6259;SDS011;3163;51.516;4.000;2023-06-19T14:34:19;3.65;;;2.42;;
6259;SDS011;3163;51.516;4.000;2023-06-19T14:36:45;2.97;;;2.58;;
6259;SDS011;3163;51.516;4.000;2023-06-19T14:39:12;4.78;;;2.90;;
6259;SDS011;3163;51.516;4.000;2023-06-19T14:41:38;3.08;;;2.78;;
6259;SDS011;3163;51.516;4.000;2023-06-19T14:44:04;5.20;;;3.10;;
6259;SDS011;3163;51.516;4.000;2023-06-19T14:46:33;3.75;;;3.00;;
6259;SDS011;3163;51.516;4.000;2023-06-19T14:49:07;3.15;;;2.72;;
6259;SDS011;3163;51.516;4.000;2023-06-19T14:51:33;3.22;;;2.92;;
6259;SDS011;3163;51.516;4.000;2023-06-19T14:53:59;2.78;;;2.58;;
6259;SDS011;3163;51.516;4.000;2023-06-19T14:56:25;3.30;;;3.00;;
6259;SDS011;3163;51.516;4.000;2023-06-19T14:58:51;3.17;;;2.63;;
6259;SDS011;3163;51.516;4.000;2023-06-19T15:01:18;3.80;;;2.72;;
6259;SDS011;3163;51.516;4.000;2023-06-19T15:03:44;3.05;;;2.85;;
6259;SDS011;3163;51.516;4.000;2023-06-19T15:06:10;3.08;;;2.88;;
6259;SDS011;3163;51.516;4.000;2023-06-19T15:08:36;4.13;;;2.80;;
6259;SDS011;3163;51.516;4.000;2023-06-19T15:11:03;5.00;;;2.65;;
6259;SDS011;3163;51.516;4.000;2023-06-19T15:13:30;5.18;;;3.35;;
6259;SDS011;3163;51.516;4.000;2023-06-19T15:15:56;2.97;;;2.67;;
6259;SDS011;3163;51.516;4.000;2023-06-19T15:18:23;3.30;;;3.00;;
6259;SDS011;3163;51.516;4.000;2023-06-19T15:20:49;3.75;;;2.92;;
6259;SDS011;3163;51.516;4.000;2023-06-19T15:23:15;3.50;;;2.65;;